Time;durP1;ratioP1;P1;durP2;ratioP2;P2;SDS_P1;SDS_P2;PMS_P1;PMS_P2;Temp;Humidity;BMP_temperature;BMP_pressure;BME280_temperature;BME280_humidity;BME280_pressure;Samples;Min_cycle;Max_cycle;Signal;HPM_P1;HPM_P2
2021/11/07 00:04:56;;;;;;;25.40;15.83;;;10.10;93.00;;;;;;5008554;28;20049;-73
2021/11/07 00:07:30;;;;;;;19.23;15.00;;;10.10;93.00;;;;;;5010151;28;20265;-73
2021/11/07 00:12:26;;;;;;;19.52;15.70;;;10.10;93.00;;;;;;5013427;28;20054;-74
2021/11/07 00:14:52;;;;;;;18.23;14.93;;;10.10;93.10;;;;;;5009616;28;20414;-73
2021/11/07 00:17:22;;;;;;;22.33;15.48;;;10.10;93.20;;;;;;5009998;28;20034;-73
2021/11/07 00:27:53;;;;;;;20.70;16.10;;;10.10;93.30;;;;;;5019156;28;20050;-72
2021/11/07 00:30:30;;;;;;;20.20;15.95;;;10.10;93.30;;;;;;5008651;28;20065;-72
2021/11/07 00:38:18;;;;;;;27.37;15.73;;;10.10;93.50;;;;;;5013227;28;20041;-73
2021/11/07 00:40:55;;;;;;;19.90;15.38;;;10.20;93.60;;;;;;5016944;28;20524;-72
2021/11/07 00:43:31;;;;;;;21.55;15.50;;;10.20;93.60;;;;;;5009257;28;20030;-73
2021/11/07 00:48:26;;;;;;;18.80;14.77;;;10.30;93.60;;;;;;5015496;28;20092;-74
2021/11/07 00:56:19;;;;;;;18.20;14.27;;;10.30;93.70;;;;;;5004127;28;20037;-72
2021/11/07 00:58:58;;;;;;;18.20;13.50;;;10.40;93.80;;;;;;5016550;28;20029;-72
2021/11/07 01:01:30;;;;;;;19.02;14.45;;;10.40;93.80;;;;;;5002620;28;20046;-72
2021/11/07 01:03:59;;;;;;;17.88;14.18;;;10.40;93.80;;;;;;5009674;28;20633;-76
2021/11/07 01:06:25;;;;;;;16.77;14.60;;;10.40;93.80;;;;;;5006262;28;20042;-73
2021/11/07 01:08:51;;;;;;;17.60;13.88;;;10.40;93.80;;;;;;5008949;28;20045;-73
2021/11/07 01:11:16;;;;;;;20.45;14.93;;;10.40;93.90;;;;;;5006797;28;20050;-73
2021/11/07 01:13:43;;;;;;;17.35;15.15;;;10.40;93.90;;;;;;5006203;28;20092;-73
2021/11/07 01:16:09;;;;;;;17.48;14.82;;;10.50;94.00;;;;;;5009593;28;20030;-72
2021/11/07 01:18:35;;;;;;;19.77;13.93;;;10.50;94.00;;;;;;5009202;28;20540;-73
2021/11/07 01:21:01;;;;;;;20.02;14.90;;;10.50;93.90;;;;;;5027072;28;20030;-72
2021/11/07 01:26:00;;;;;;;16.98;15.13;;;10.50;93.90;;;;;;5008942;28;20030;-73
2021/11/07 01:28:27;;;;;;;19.98;14.95;;;10.50;94.00;;;;;;5010061;28;20030;-72
2021/11/07 01:30:56;;;;;;;17.83;15.63;;;10.50;94.00;;;;;;5007135;28;20033;-73
2021/11/07 01:33:27;;;;;;;20.08;15.65;;;10.60;94.00;;;;;;5003531;28;20034;-73
2021/11/07 01:39:34;;;;;;;20.23;15.87;;;10.60;93.90;;;;;;5005231;28;20119;-73
2021/11/07 01:41:28;;;;;;;18.88;15.93;;;10.60;93.90;;;;;;4996173;28;20116;-72
2021/11/07 01:43:56;;;;;;;17.40;15.50;;;10.60;93.90;;;;;;5010393;28;20026;-72
2021/11/07 01:49:11;;;;;;;18.33;15.85;;;10.50;94.00;;;;;;5010280;28;20042;-72
2021/11/07 01:51:46;;;;;;;18.80;16.30;;;10.50;93.90;;;;;;5006704;28;20046;-72
2021/11/07 01:54:33;;;;;;;18.38;15.65;;;10.50;93.90;;;;;;5005931;28;20048;-72
2021/11/07 01:56:59;;;;;;;19.60;16.67;;;10.60;93.90;;;;;;5005999;28;20049;-72
2021/11/07 01:59:25;;;;;;;21.73;16.98;;;10.60;93.90;;;;;;5025172;28;20038;-72
2021/11/07 02:01:53;;;;;;;21.77;16.25;;;10.60;93.90;;;;;;5005057;28;20527;-73
2021/11/07 02:04:19;;;;;;;18.10;16.20;;;10.60;93.90;;;;;;5007989;28;20038;-74
2021/11/07 02:06:45;;;;;;;18.65;16.35;;;10.60;93.90;;;;;;5007818;28;20026;-76
2021/11/07 02:09:11;;;;;;;20.60;16.02;;;10.60;93.90;;;;;;5022772;28;20506;-75
2021/11/07 02:11:36;;;;;;;20.88;16.23;;;10.60;93.90;;;;;;5005768;28;20057;-73
2021/11/07 02:14:02;;;;;;;19.35;15.88;;;10.60;93.90;;;;;;5007952;28;20026;-74
2021/11/07 02:16:28;;;;;;;21.40;16.90;;;10.60;93.90;;;;;;5006956;28;20041;-74
2021/11/07 02:18:55;;;;;;;18.50;15.82;;;10.60;93.90;;;;;;5010276;28;20062;-74
2021/11/07 02:21:20;;;;;;;20.40;16.15;;;10.60;93.90;;;;;;5006123;28;20033;-73
2021/11/07 02:23:46;;;;;;;18.88;15.73;;;10.70;93.90;;;;;;5004814;28;20040;-76
2021/11/07 02:26:12;;;;;;;21.15;17.05;;;10.70;94.00;;;;;;5007686;28;20085;-73
2021/11/07 02:28:43;;;;;;;17.13;15.02;;;10.70;94.00;;;;;;5013727;28;20037;-74
2021/11/07 02:31:13;;;;;;;21.40;16.73;;;10.70;94.10;;;;;;5006144;28;20056;-73
2021/11/07 02:33:39;;;;;;;17.33;14.90;;;10.80;94.20;;;;;;5021194;28;20034;-73
2021/11/07 02:36:07;;;;;;;19.00;15.13;;;10.80;94.10;;;;;;5012606;28;20038;-74
2021/11/07 02:38:35;;;;;;;18.73;14.88;;;10.90;94.20;;;;;;5012528;28;20143;-73
2021/11/07 02:41:02;;;;;;;17.52;14.38;;;10.90;94.20;;;;;;5007831;28;20065;-74
2021/11/07 02:43:27;;;;;;;15.85;13.68;;;10.90;94.30;;;;;;5006441;28;20050;-75
2021/11/07 02:45:53;;;;;;;16.77;13.10;;;10.90;94.30;;;;;;5005571;28;20037;-73
2021/11/07 02:48:19;;;;;;;15.90;12.05;;;11.00;94.30;;;;;;5006350;28;20129;-76
2021/11/07 02:50:44;;;;;;;16.30;13.02;;;11.00;94.40;;;;;;5007920;28;20044;-73
2021/11/07 02:53:10;;;;;;;15.10;12.35;;;11.10;94.40;;;;;;5010002;28;20050;-74
2021/11/07 02:55:36;;;;;;;16.40;12.27;;;11.10;94.50;;;;;;5020360;28;20038;-73
2021/11/07 02:58:03;;;;;;;18.45;12.27;;;11.10;94.50;;;;;;5007609;28;20034;-74
2021/11/07 03:00:31;;;;;;;18.92;12.88;;;11.10;94.50;;;;;;5005682;28;20109;-74
2021/11/07 03:02:58;;;;;;;14.85;11.55;;;11.10;94.50;;;;;;5005728;28;20470;-74
2021/11/07 03:05:24;;;;;;;16.52;11.90;;;11.10;94.50;;;;;;5006646;28;20146;-73
2021/11/07 03:07:51;;;;;;;16.85;12.05;;;11.20;94.50;;;;;;5006892;28;20073;-74
2021/11/07 03:10:18;;;;;;;14.85;11.80;;;11.20;94.50;;;;;;5005399;28;20053;-74
2021/11/07 03:12:45;;;;;;;18.67;13.15;;;11.20;94.50;;;;;;5006399;28;20080;-73
2021/11/07 03:15:12;;;;;;;16.55;12.40;;;11.30;94.50;;;;;;5006793;28;20129;-73
2021/11/07 03:17:37;;;;;;;16.42;11.77;;;11.20;94.40;;;;;;5024428;28;20046;-73
2021/11/07 03:20:06;;;;;;;16.77;12.95;;;11.20;94.40;;;;;;5010950;28;20466;-73
2021/11/07 03:22:31;;;;;;;17.73;13.48;;;11.20;94.40;;;;;;5008627;28;20105;-74
2021/11/07 03:24:57;;;;;;;18.00;12.32;;;11.20;94.30;;;;;;5019533;28;20133;-74
2021/11/07 03:27:27;;;;;;;15.82;11.60;;;11.20;94.30;;;;;;5012144;28;20500;-73
2021/11/07 03:29:55;;;;;;;18.30;12.15;;;11.20;94.30;;;;;;5013756;28;20064;-73
2021/11/07 03:32:30;;;;;;;18.13;13.73;;;11.20;94.40;;;;;;5006164;28;20143;-73
2021/11/07 03:35:01;;;;;;;17.38;11.68;;;11.20;94.40;;;;;;5006662;28;20120;-75
2021/11/07 03:37:29;;;;;;;15.68;10.93;;;11.20;94.40;;;;;;5006015;28;20560;-74
2021/11/07 03:39:59;;;;;;;19.35;11.90;;;11.20;94.40;;;;;;5009439;28;20634;-74
2021/11/07 03:42:26;;;;;;;15.35;10.82;;;11.30;94.50;;;;;;5007487;28;20041;-73
2021/11/07 03:44:53;;;;;;;18.17;11.27;;;11.30;94.60;;;;;;5001499;28;20058;-74
2021/11/07 03:47:19;;;;;;;18.85;11.15;;;11.30;94.50;;;;;;5012694;28;20033;-73
2021/11/07 03:49:44;;;;;;;14.55;10.98;;;11.30;94.60;;;;;;5011189;28;20362;-73
2021/11/07 03:52:11;;;;;;;18.55;12.10;;;11.30;94.60;;;;;;5029791;28;20056;-73
2021/11/07 03:54:40;;;;;;;16.83;10.88;;;11.40;94.60;;;;;;5013676;28;20029;-74
2021/11/07 03:57:06;;;;;;;17.10;11.77;;;11.40;94.70;;;;;;5014986;28;20034;-76
2021/11/07 03:59:33;;;;;;;15.48;11.38;;;11.40;94.70;;;;;;5016536;28;20041;-74
2021/11/07 04:01:59;;;;;;;17.25;10.43;;;11.40;94.60;;;;;;5009608;28;20042;-73
2021/11/07 04:04:24;;;;;;;15.50;10.98;;;11.40;94.60;;;;;;5009934;28;20022;-74
2021/11/07 04:06:50;;;;;;;17.38;11.43;;;11.40;94.60;;;;;;5012716;28;20052;-74
2021/11/07 04:09:17;;;;;;;20.73;12.88;;;11.50;94.70;;;;;;5011654;28;20046;-74
2021/11/07 04:11:43;;;;;;;21.35;13.13;;;11.50;94.60;;;;;;5013084;28;20553;-73
2021/11/07 04:14:11;;;;;;;18.95;13.05;;;11.50;94.50;;;;;;5008122;28;20029;-74
2021/11/07 04:16:38;;;;;;;25.63;13.50;;;11.50;94.50;;;;;;5023269;28;20065;-73
2021/11/07 04:19:05;;;;;;;22.88;13.85;;;11.50;94.60;;;;;;5005267;28;20050;-73
2021/11/07 04:21:31;;;;;;;18.50;12.50;;;11.50;94.60;;;;;;5027053;28;20034;-73
2021/11/07 04:23:56;;;;;;;23.15;13.70;;;11.60;94.70;;;;;;5008004;28;20089;-74
2021/11/07 04:26:23;;;;;;;24.02;13.20;;;11.50;94.70;;;;;;5010270;28;20108;-74
2021/11/07 04:28:49;;;;;;;18.30;12.05;;;11.60;94.70;;;;;;5004122;28;20026;-74
2021/11/07 04:31:15;;;;;;;22.33;13.48;;;11.60;94.60;;;;;;5012484;28;20033;-73
2021/11/07 04:33:41;;;;;;;21.75;11.48;;;11.60;94.60;;;;;;5011466;28;20083;-74
2021/11/07 04:36:07;;;;;;;20.58;10.82;;;11.60;94.50;;;;;;5011740;28;20042;-74
2021/11/07 04:38:35;;;;;;;24.48;10.50;;;11.60;94.50;;;;;;5010289;28;20075;-74
2021/11/07 04:41:02;;;;;;;22.10;11.52;;;11.60;94.40;;;;;;5011697;28;20057;-74
2021/11/07 04:43:28;;;;;;;19.95;10.80;;;11.60;94.30;;;;;;5008204;28;20389;-75
2021/11/07 04:45:54;;;;;;;20.65;11.63;;;11.60;94.40;;;;;;5015236;28;20022;-74
2021/11/07 04:48:20;;;;;;;26.02;11.65;;;11.60;94.40;;;;;;5011561;28;20030;-75
2021/11/07 04:50:47;;;;;;;20.55;10.88;;;11.60;94.30;;;;;;5011524;28;20038;-73
2021/11/07 04:53:13;;;;;;;22.42;11.63;;;11.60;94.30;;;;;;5016649;28;20034;-75
2021/11/07 04:55:42;;;;;;;17.80;10.93;;;11.70;94.30;;;;;;5008173;28;20444;-73
2021/11/07 04:58:09;;;;;;;21.70;11.02;;;11.70;94.20;;;;;;5010541;28;20111;-73
2021/11/07 05:00:36;;;;;;;19.70;11.43;;;11.70;94.20;;;;;;5022658;28;20034;-73
2021/11/07 05:03:03;;;;;;;21.20;11.25;;;11.70;94.00;;;;;;5024150;28;20502;-73
2021/11/07 05:05:31;;;;;;;17.95;12.00;;;11.70;93.90;;;;;;5019984;28;20042;-71
2021/11/07 05:07:57;;;;;;;18.10;11.63;;;11.70;93.80;;;;;;5010402;28;20041;-74
2021/11/07 05:10:23;;;;;;;22.95;12.25;;;11.70;93.90;;;;;;5014290;28;20041;-73
2021/11/07 05:12:49;;;;;;;20.83;11.55;;;11.70;93.90;;;;;;5018937;28;20057;-72
2021/11/07 05:15:15;;;;;;;19.23;11.52;;;11.70;93.90;;;;;;5007010;28;20478;-73
2021/11/07 05:17:42;;;;;;;18.33;10.73;;;11.70;93.80;;;;;;5005769;28;20045;-76
2021/11/07 05:20:09;;;;;;;18.73;10.68;;;11.70;93.70;;;;;;5006182;28;20068;-73
2021/11/07 05:22:35;;;;;;;19.23;11.43;;;11.70;93.70;;;;;;5021489;28;20038;-74
2021/11/07 05:25:00;;;;;;;20.92;10.82;;;11.70;93.60;;;;;;5007504;28;20129;-72
2021/11/07 05:27:26;;;;;;;24.02;11.35;;;11.60;93.50;;;;;;5006830;28;20045;-73
2021/11/07 05:29:52;;;;;;;20.60;10.73;;;11.60;93.30;;;;;;5006627;28;20042;-72
2021/11/07 05:32:18;;;;;;;16.73;10.07;;;11.60;93.20;;;;;;5006045;28;20050;-73
2021/11/07 05:34:46;;;;;;;25.92;10.50;;;11.50;93.10;;;;;;5013643;28;20034;-72
2021/11/07 05:37:11;;;;;;;21.33;9.25;;;11.60;93.10;;;;;;5005193;28;20513;-72
2021/11/07 05:39:37;;;;;;;16.73;7.75;;;11.60;93.00;;;;;;5011884;28;20026;-72
2021/11/07 05:42:03;;;;;;;21.95;5.55;;;11.50;92.30;;;;;;5015551;28;20547;-72
2021/11/07 05:44:29;;;;;;;15.25;4.47;;;11.40;90.90;;;;;;5017402;28;20041;-72
2021/11/07 05:46:55;;;;;;;15.95;6.38;;;11.40;89.30;;;;;;5008117;28;20054;-72
2021/11/07 05:49:21;;;;;;;16.65;4.13;;;11.40;87.70;;;;;;5006473;28;20044;-72
2021/11/07 05:51:47;;;;;;;16.83;3.42;;;11.40;85.10;;;;;;5009188;28;20037;-72
2021/11/07 05:54:12;;;;;;;14.73;3.80;;;11.40;83.70;;;;;;5006836;28;20022;-72
2021/11/07 05:56:38;;;;;;;11.80;2.95;;;11.40;83.60;;;;;;5008739;28;20485;-72
2021/11/07 05:59:05;;;;;;;14.07;3.30;;;11.40;83.00;;;;;;5013700;28;20038;-74
2021/11/07 06:01:30;;;;;;;15.95;3.30;;;11.40;82.50;;;;;;5007113;28;20512;-75
2021/11/07 06:03:56;;;;;;;14.70;2.97;;;11.30;82.80;;;;;;5006377;28;20125;-75
2021/11/07 06:06:22;;;;;;;13.13;2.95;;;11.30;82.70;;;;;;5006201;28;20038;-74
2021/11/07 06:08:48;;;;;;;14.23;3.20;;;11.20;81.90;;;;;;5008442;28;20090;-74
2021/11/07 06:11:14;;;;;;;15.00;3.42;;;11.30;82.00;;;;;;5003874;28;20470;-74
2021/11/07 06:13:40;;;;;;;16.65;3.05;;;11.30;82.20;;;;;;5000293;28;20038;-73
2021/11/07 06:16:05;;;;;;;14.45;3.38;;;11.20;82.40;;;;;;5008796;28;20026;-73
2021/11/07 06:18:31;;;;;;;13.48;2.95;;;11.10;82.40;;;;;;5008513;28;20077;-74
2021/11/07 06:20:58;;;;;;;14.10;4.53;;;11.10;82.70;;;;;;5008834;28;20099;-75
2021/11/07 06:23:25;;;;;;;14.07;3.47;;;11.00;82.80;;;;;;5006358;28;20042;-74
2021/11/07 06:25:51;;;;;;;15.13;3.75;;;11.00;82.80;;;;;;5006483;28;20029;-73
2021/11/07 06:28:17;;;;;;;24.40;5.53;;;10.90;82.90;;;;;;5006741;28;20049;-74
2021/11/07 06:30:47;;;;;;;16.65;3.78;;;10.90;82.90;;;;;;5001555;28;20038;-73
2021/11/07 06:33:12;;;;;;;17.60;3.72;;;10.80;83.00;;;;;;5022052;28;20071;-73
2021/11/07 06:35:38;;;;;;;15.05;4.35;;;10.80;82.90;;;;;;5008196;28;20037;-74
2021/11/07 06:38:04;;;;;;;15.02;4.05;;;10.70;82.90;;;;;;5008259;28;20042;-73
2021/11/07 06:40:31;;;;;;;15.80;4.00;;;10.70;83.10;;;;;;5009754;28;20076;-75
2021/11/07 06:42:56;;;;;;;20.40;3.90;;;10.60;83.20;;;;;;5009014;28;20081;-77
2021/11/07 06:45:22;;;;;;;15.68;4.65;;;10.60;83.20;;;;;;5022904;28;20580;-77
2021/11/07 06:47:49;;;;;;;17.17;3.80;;;10.60;83.40;;;;;;5010878;28;20039;-75
2021/11/07 06:50:15;;;;;;;20.15;4.47;;;10.50;83.60;;;;;;5011603;28;20060;-74
2021/11/07 06:52:41;;;;;;;13.88;4.03;;;10.40;83.70;;;;;;5004719;28;20485;-74
2021/11/07 06:55:08;;;;;;;12.88;3.67;;;10.40;83.70;;;;;;5022497;28;20057;-75
2021/11/07 06:57:34;;;;;;;16.33;4.55;;;10.30;83.70;;;;;;5008944;28;20038;-74
2021/11/07 07:00:00;;;;;;;20.30;4.38;;;10.30;83.60;;;;;;5014311;28;20030;-73
2021/11/07 07:02:26;;;;;;;15.63;3.80;;;10.30;83.60;;;;;;5004384;28;20045;-74
2021/11/07 07:04:51;;;;;;;18.75;3.83;;;10.30;83.80;;;;;;5007595;28;20030;-74
2021/11/07 07:07:18;;;;;;;15.48;3.47;;;10.30;83.70;;;;;;5000916;28;20049;-73
2021/11/07 07:09:54;;;;;;;16.90;4.13;;;10.30;83.40;;;;;;5010213;28;20036;-74
2021/11/07 07:17:28;;;;;;;12.73;3.40;;;10.40;83.40;;;;;;5009388;28;20498;-73
2021/11/07 07:23:07;;;;;;;18.23;4.40;;;10.30;83.90;;;;;;5006861;28;20513;-73
2021/11/07 07:25:56;;;;;;;16.85;4.10;;;10.30;83.90;;;;;;5009453;28;20076;-74
2021/11/07 07:34:08;;;;;;;16.13;4.18;;;10.20;83.90;;;;;;5008820;28;20049;-73
2021/11/07 07:36:34;;;;;;;22.00;5.78;;;10.30;83.80;;;;;;5011761;28;20397;-74
2021/11/07 07:39:00;;;;;;;23.27;5.10;;;10.30;83.30;;;;;;5008685;28;20414;-73
2021/11/07 07:41:26;;;;;;;15.75;4.72;;;10.40;83.10;;;;;;5012467;28;20137;-74
2021/11/07 07:43:53;;;;;;;14.10;4.75;;;10.40;83.00;;;;;;5012403;28;20121;-72
2021/11/07 07:46:21;;;;;;;21.42;7.22;;;10.50;83.00;;;;;;5011996;28;20034;-73
2021/11/07 07:48:47;;;;;;;19.27;5.30;;;10.60;82.20;;;;;;5011545;28;20034;-75
2021/11/07 07:51:16;;;;;;;17.20;5.15;;;10.60;82.20;;;;;;5022608;28;20065;-73
2021/11/07 07:53:43;;;;;;;18.55;5.30;;;10.60;82.10;;;;;;5008747;28;20038;-73
2021/11/07 07:56:09;;;;;;;19.65;5.30;;;10.60;82.10;;;;;;5006541;28;20504;-73
2021/11/07 07:58:37;;;;;;;19.63;4.80;;;10.60;82.00;;;;;;5012184;28;20038;-73
2021/11/07 08:01:04;;;;;;;19.45;4.38;;;10.60;82.00;;;;;;4998512;28;20057;-72
2021/11/07 08:03:30;;;;;;;17.80;4.78;;;10.60;81.90;;;;;;5009314;28;20040;-74
2021/11/07 08:05:57;;;;;;;20.20;5.40;;;10.50;82.10;;;;;;5008473;28;20041;-73
2021/11/07 08:08:22;;;;;;;19.83;5.50;;;10.50;81.90;;;;;;5010818;28;21627;-73
2021/11/07 08:10:48;;;;;;;17.10;4.53;;;10.40;81.90;;;;;;5011594;28;20037;-71
2021/11/07 08:13:14;;;;;;;18.67;5.00;;;10.40;82.00;;;;;;5007885;28;20045;-72
2021/11/07 08:15:40;;;;;;;21.35;4.70;;;10.40;81.90;;;;;;5007307;28;20038;-72
2021/11/07 08:18:06;;;;;;;14.93;4.80;;;10.30;81.80;;;;;;5006878;28;20042;-77
2021/11/07 08:20:32;;;;;;;19.98;5.38;;;10.30;81.90;;;;;;5005892;28;20122;-72
2021/11/07 08:22:58;;;;;;;20.63;5.90;;;10.30;81.50;;;;;;5005293;28;20161;-73
2021/11/07 08:25:24;;;;;;;18.38;5.13;;;10.30;81.30;;;;;;5007512;28;20069;-73
2021/11/07 08:27:55;;;;;;;17.83;4.70;;;10.30;81.50;;;;;;5006884;28;20107;-74
2021/11/07 08:30:24;;;;;;;18.05;4.78;;;10.30;81.90;;;;;;5008488;28;20559;-74
2021/11/07 08:32:50;;;;;;;17.63;4.28;;;10.40;81.80;;;;;;5005388;28;20042;-74
2021/11/07 08:35:16;;;;;;;18.10;4.93;;;10.50;81.70;;;;;;5008281;28;20091;-72
2021/11/07 08:40:12;;;;;;;16.55;4.35;;;10.80;80.70;;;;;;5008123;28;20387;-74
2021/11/07 08:42:51;;;;;;;15.50;4.53;;;11.00;80.50;;;;;;5003910;28;20073;-73
2021/11/07 09:09:28;;;;;;;18.73;4.95;;;11.70;77.70;;;;;;5005981;28;20406;-69
2021/11/07 09:11:56;;;;;;;22.85;4.40;;;11.80;76.80;;;;;;5003067;28;20041;-70
2021/11/07 09:14:36;;;;;;;16.42;4.80;;;12.00;77.10;;;;;;5005323;28;20096;-70
2021/11/07 09:17:06;;;;;;;16.63;4.43;;;12.10;76.00;;;;;;5004523;28;20048;-70
2021/11/07 09:19:33;;;;;;;17.35;3.72;;;12.10;75.70;;;;;;5006720;28;20046;-69
2021/11/07 09:22:12;;;;;;;18.48;4.43;;;12.20;74.60;;;;;;5006012;28;20046;-69
2021/11/07 09:24:44;;;;;;;22.85;5.22;;;12.30;74.50;;;;;;5006318;28;20034;-67
2021/11/07 09:32:48;;;;;;;21.08;4.82;;;12.20;73.70;;;;;;5007564;28;20462;-69
2021/11/07 09:38:02;;;;;;;17.58;4.35;;;12.20;74.20;;;;;;5005431;28;20379;-71
2021/11/07 09:40:32;;;;;;;20.35;4.22;;;12.30;74.20;;;;;;5005453;28;20041;-69
2021/11/07 09:48:13;;;;;;;17.35;4.03;;;12.20;74.30;;;;;;5004529;28;20042;-69
2021/11/07 09:50:41;;;;;;;20.42;4.57;;;12.20;74.60;;;;;;5005083;28;20050;-69
2021/11/07 09:53:07;;;;;;;21.45;4.35;;;12.20;75.20;;;;;;5005448;28;20125;-69
2021/11/07 09:55:33;;;;;;;16.60;3.95;;;12.20;75.10;;;;;;5005218;28;20414;-69
2021/11/07 09:58:01;;;;;;;20.95;4.40;;;12.10;75.20;;;;;;5004159;28;20080;-69
2021/11/07 10:00:35;;;;;;;17.95;4.70;;;12.10;75.90;;;;;;5007436;28;20045;-70
2021/11/07 10:03:01;;;;;;;17.25;4.47;;;12.10;75.80;;;;;;5004813;28;20400;-72
2021/11/07 10:05:27;;;;;;;18.77;4.07;;;12.20;75.10;;;;;;5007338;28;20030;-69
2021/11/07 10:08:03;;;;;;;18.70;4.43;;;12.20;74.30;;;;;;5001952;28;20038;-70
2021/11/07 10:10:33;;;;;;;21.63;4.47;;;12.30;74.80;;;;;;5004615;28;20046;-70
2021/11/07 10:13:06;;;;;;;19.40;4.30;;;12.40;74.20;;;;;;5003071;28;20054;-71
2021/11/07 10:15:41;;;;;;;20.23;4.85;;;12.40;74.40;;;;;;5004759;28;20046;-69
2021/11/07 10:18:11;;;;;;;21.63;4.70;;;12.50;73.60;;;;;;5004419;28;20030;-70
2021/11/07 10:20:51;;;;;;;20.08;4.43;;;12.60;72.60;;;;;;5003250;28;20556;-71
2021/11/07 10:23:32;;;;;;;16.50;3.92;;;12.70;73.30;;;;;;5004414;28;20045;-73
2021/11/07 10:26:19;;;;;;;18.05;4.07;;;12.70;72.50;;;;;;5006050;28;20426;-71
2021/11/07 10:28:57;;;;;;;19.27;4.75;;;12.60;72.00;;;;;;5009525;28;20491;-69
2021/11/07 10:31:31;;;;;;;16.23;3.63;;;12.70;70.90;;;;;;5002168;28;20034;-68
2021/11/07 10:45:45;;;;;;;21.77;4.47;;;12.70;70.50;;;;;;5000630;28;20394;-69
2021/11/07 10:52:05;;;;;;;;;;;12.70;70.00;;;;;;5009700;28;20034;-69
2021/11/07 10:54:12;;;;;;;21.88;5.20;;;12.70;70.60;;;;;;5005892;28;20099;-68
2021/11/07 10:56:38;;;;;;;18.05;3.60;;;12.60;69.90;;;;;;5005501;28;20037;-69
2021/11/07 10:59:16;;;;;;;20.20;5.10;;;12.60;71.60;;;;;;5007348;28;20036;-69
2021/11/07 11:01:44;;;;;;;15.70;5.32;;;12.60;72.10;;;;;;5010874;28;20488;-72
2021/11/07 11:04:10;;;;;;;15.50;4.43;;;12.60;71.80;;;;;;5008386;28;20056;-68
2021/11/07 11:06:36;;;;;;;21.63;4.90;;;12.50;70.80;;;;;;5010681;28;20067;-67
2021/11/07 11:09:15;;;;;;;15.63;4.38;;;12.50;70.70;;;;;;5008100;28;20496;-68
2021/11/07 11:11:48;;;;;;;22.02;6.05;;;12.40;71.00;;;;;;5010419;28;20379;-68
2021/11/07 11:17:01;;;;;;;21.75;4.53;;;12.30;70.60;;;;;;5010512;28;20029;-71
2021/11/07 11:22:29;;;;;;;24.02;5.97;;;12.20;71.30;;;;;;5010991;28;20069;-69
2021/11/07 11:38:39;;;;;;;15.90;4.70;;;12.10;71.50;;;;;;5010935;28;20066;-68
2021/11/07 11:41:10;;;;;;;23.15;4.95;;;12.10;72.00;;;;;;5010338;28;20115;-67
2021/11/07 11:43:45;;;;;;;20.92;5.28;;;12.10;72.60;;;;;;5010660;28;20509;-68
2021/11/07 11:46:24;;;;;;;22.83;5.05;;;12.10;73.00;;;;;;5009879;28;20041;-70
2021/11/07 11:51:51;;;;;;;23.60;5.75;;;12.40;71.20;;;;;;5008689;28;20096;-69
2021/11/07 11:57:27;;;;;;;26.48;5.93;;;12.60;69.90;;;;;;4977406;28;20092;-72
2021/11/07 12:02:37;;;;;;;19.23;5.57;;;12.50;70.30;;;;;;5010662;28;20054;-72
2021/11/07 12:05:28;;;;;;;23.35;5.53;;;12.60;69.50;;;;;;5002253;28;20049;-68
2021/11/07 12:08:18;;;;;;;20.77;4.82;;;12.60;68.60;;;;;;5011393;28;20426;-69
2021/11/07 12:13:47;;;;;;;24.85;4.90;;;12.70;67.80;;;;;;5006584;28;20054;-68
2021/11/07 12:16:26;;;;;;;26.85;6.13;;;12.80;67.50;;;;;;5006583;28;20524;-68
2021/11/07 12:19:03;;;;;;;20.17;5.80;;;12.80;66.60;;;;;;5000216;28;20141;-70
2021/11/07 12:21:50;;;;;;;18.95;5.20;;;13.10;67.10;;;;;;5006591;28;20042;-69
2021/11/07 12:24:29;;;;;;;20.75;4.60;;;13.10;66.20;;;;;;5002916;28;20061;-70
2021/11/07 12:27:59;;;;;;;25.58;5.47;;;13.10;65.50;;;;;;5008283;28;20038;-70
2021/11/07 12:30:29;;;;;;;16.80;4.22;;;12.70;65.90;;;;;;4961970;28;20096;-69
2021/11/07 12:33:20;;;;;;;22.45;4.70;;;12.70;67.10;;;;;;5008437;28;20065;-70
2021/11/07 12:41:12;;;;;;;21.20;5.35;;;12.60;67.00;;;;;;5008784;28;20049;-70
2021/11/07 12:43:45;;;;;;;20.02;4.22;;;12.60;67.20;;;;;;4999825;28;20525;-71
2021/11/07 12:46:22;;;;;;;18.85;4.53;;;12.70;67.70;;;;;;5000148;28;20060;-69
2021/11/07 12:48:54;;;;;;;18.90;4.07;;;12.60;67.70;;;;;;5001147;28;20639;-69
2021/11/07 12:51:32;;;;;;;16.90;4.55;;;12.60;68.10;;;;;;5015993;28;20030;-70
2021/11/07 12:54:35;;;;;;;17.75;3.97;;;12.40;68.50;;;;;;5002216;28;20132;-69
2021/11/07 12:57:13;;;;;;;21.27;4.63;;;12.50;68.90;;;;;;5015580;28;20087;-72
2021/11/07 12:59:50;;;;;;;16.98;4.72;;;12.60;68.70;;;;;;5004075;28;20037;-69
2021/11/07 13:02:19;;;;;;;18.73;4.32;;;12.70;68.70;;;;;;5001380;28;20478;-69
2021/11/07 13:04:56;;;;;;;22.42;5.15;;;12.70;68.50;;;;;;5003998;28;20046;-72
2021/11/07 13:07:26;;;;;;;19.15;4.60;;;12.60;68.00;;;;;;5004752;28;20069;-70
2021/11/07 13:10:02;;;;;;;17.17;3.83;;;12.50;67.90;;;;;;5004088;28;20294;-68
2021/11/07 13:12:34;;;;;;;16.70;4.22;;;12.40;68.30;;;;;;5000647;28;20068;-72
2021/11/07 13:15:22;;;;;;;19.35;4.30;;;12.40;68.30;;;;;;5004308;28;20057;-68
2021/11/07 13:26:19;;;;;;;19.05;3.92;;;12.40;68.80;;;;;;5000633;28;19921;-70
2021/11/07 13:28:56;;;;;;;22.17;4.43;;;12.20;69.30;;;;;;5003293;28;20030;-68
2021/11/07 13:31:25;;;;;;;24.98;5.03;;;12.10;69.40;;;;;;5000497;28;20081;-68
2021/11/07 13:33:50;;;;;;;24.13;5.32;;;12.10;69.80;;;;;;5004104;28;20114;-69
2021/11/07 13:36:19;;;;;;;25.27;6.43;;;12.10;69.80;;;;;;5003734;28;20134;-70
2021/11/07 13:38:53;;;;;;;22.38;4.82;;;12.30;70.20;;;;;;5004604;28;20908;-68
2021/11/07 13:41:23;;;;;;;20.85;5.57;;;12.30;69.90;;;;;;5002750;28;20042;-68
2021/11/07 13:43:59;;;;;;;21.15;5.05;;;12.40;69.10;;;;;;5004582;28;20065;-68
2021/11/07 13:46:25;;;;;;;25.50;5.05;;;12.30;68.20;;;;;;5003884;28;20041;-68
2021/11/07 13:49:01;;;;;;;21.30;4.80;;;12.20;68.00;;;;;;5006392;28;20425;-68
2021/11/07 13:51:29;;;;;;;17.58;4.13;;;12.10;69.40;;;;;;5013104;28;20034;-69
2021/11/07 13:54:03;;;;;;;20.95;4.07;;;12.10;69.70;;;;;;5006268;28;20034;-70
2021/11/07 13:56:30;;;;;;;20.65;4.18;;;12.00;69.50;;;;;;5005219;28;20032;-68
2021/11/07 13:58:56;;;;;;;22.40;3.90;;;11.90;69.70;;;;;;5002556;28;20089;-69
2021/11/07 14:01:22;;;;;;;29.02;4.60;;;11.90;70.10;;;;;;5011041;28;20048;-68
2021/11/07 14:03:56;;;;;;;21.00;4.30;;;11.80;70.60;;;;;;5010906;28;20041;-70
2021/11/07 14:06:37;;;;;;;16.77;4.20;;;11.80;71.20;;;;;;5004356;28;20065;-68
2021/11/07 14:09:05;;;;;;;22.45;4.88;;;11.80;71.40;;;;;;5006093;28;20050;-68
2021/11/07 14:11:33;;;;;;;21.17;5.45;;;11.70;71.50;;;;;;5007723;28;20470;-69
2021/11/07 14:14:03;;;;;;;31.33;7.90;;;11.70;71.30;;;;;;5001224;28;20112;-69
2021/11/07 14:16:36;;;;;;;27.63;5.63;;;11.70;72.20;;;;;;5005717;28;20026;-70
2021/11/07 14:19:07;;;;;;;21.42;5.93;;;11.70;71.90;;;;;;5005732;28;20128;-72
2021/11/07 14:21:40;;;;;;;19.15;5.00;;;11.80;72.40;;;;;;5006921;28;20029;-69
2021/11/07 14:24:10;;;;;;;22.10;5.10;;;11.80;72.40;;;;;;5022208;28;20042;-69
2021/11/07 14:29:22;;;;;;;20.98;5.93;;;11.80;71.70;;;;;;5005875;28;20026;-69
2021/11/07 14:40:14;;;;;;;22.60;5.65;;;11.80;72.30;;;;;;4999884;28;20034;-71
2021/11/07 14:48:55;;;;;;;30.23;6.20;;;11.80;73.00;;;;;;5006228;28;20029;-70
2021/11/07 14:54:05;;;;;;;21.20;4.97;;;11.70;73.10;;;;;;5004320;28;20080;-67
2021/11/07 14:56:48;;;;;;;24.15;4.78;;;11.60;72.80;;;;;;5006316;28;20038;-68
2021/11/07 15:02:34;;;;;;;31.25;5.78;;;11.60;72.60;;;;;;5006127;28;20064;-68
2021/11/07 15:05:06;;;;;;;23.40;5.35;;;11.60;72.70;;;;;;5002305;28;20066;-68
2021/11/07 15:07:41;;;;;;;24.48;5.40;;;11.50;73.40;;;;;;5006093;28;20118;-68
2021/11/07 15:13:01;;;;;;;23.88;6.72;;;11.40;73.00;;;;;;5005898;28;20045;-68
2021/11/07 15:15:53;;;;;;;25.95;6.47;;;11.40;73.00;;;;;;5006424;28;20026;-68
2021/11/07 15:21:04;;;;;;;25.75;6.22;;;11.30;72.90;;;;;;5003108;28;20542;-70
2021/11/07 15:23:38;;;;;;;24.48;5.35;;;11.30;73.50;;;;;;5003586;28;20033;-68
2021/11/07 15:26:25;;;;;;;28.83;6.25;;;11.20;73.80;;;;;;5007348;28;20038;-66
2021/11/07 15:29:07;;;;;;;22.90;5.07;;;11.20;74.10;;;;;;5002682;28;20444;-67
2021/11/07 15:31:33;;;;;;;25.33;6.88;;;11.10;74.00;;;;;;5002576;28;20041;-69
2021/11/07 15:34:02;;;;;;;29.30;6.70;;;11.10;74.20;;;;;;5006058;28;20097;-68
2021/11/07 15:36:40;;;;;;;32.17;6.25;;;11.00;74.50;;;;;;5006816;28;20081;-68
2021/11/07 15:39:15;;;;;;;22.15;5.25;;;10.90;74.70;;;;;;5004488;28;20116;-70
2021/11/07 15:42:00;;;;;;;;;;;10.90;74.90;;;;;;5007524;28;20116;-72
2021/11/07 15:44:25;;;;;;;21.75;5.43;;;10.80;74.90;;;;;;5003624;28;19949;-68